createdAt,value
2023-05-12T00:00:29.280Z,18.77
2023-05-12T00:02:59.582Z,18.73
2023-05-12T00:05:29.659Z,18.73
2023-05-12T00:08:02.365Z,18.69
2023-05-12T00:10:32.689Z,18.68
2023-05-12T00:13:02.765Z,18.64
2023-05-12T00:15:33.019Z,18.59
2023-05-12T00:18:03.288Z,18.54
2023-05-12T00:20:34.144Z,18.48
2023-05-12T00:23:06.941Z,18.44
2023-05-12T00:25:38.249Z,18.43
2023-05-12T00:28:08.952Z,18.38
2023-05-12T00:30:39.110Z,18.33
2023-05-12T00:33:09.195Z,18.34
2023-05-12T00:35:39.457Z,18.36
2023-05-12T00:38:13.334Z,18.34
2023-05-12T00:40:46.086Z,18.33
2023-05-12T00:43:16.230Z,18.28
2023-05-12T00:45:46.803Z,18.22
2023-05-12T00:48:17.215Z,18.24
2023-05-12T00:50:47.604Z,18.21
2023-05-12T00:53:20.798Z,18.19
2023-05-12T00:55:51.064Z,18.17
2023-05-12T00:58:22.786Z,18.14
2023-05-12T01:00:57.387Z,18.12
2023-05-12T01:03:28.115Z,18.16
2023-05-12T01:06:09.018Z,18.15
2023-05-12T01:08:44.505Z,18.16
2023-05-12T01:11:16.399Z,18.13
2023-05-12T01:13:46.747Z,18.04
2023-05-12T01:16:21.992Z,17.91
2023-05-12T01:18:57.286Z,17.91
2023-05-12T01:21:27.861Z,17.94
2023-05-12T01:24:04.544Z,17.89
2023-05-12T01:26:38.018Z,17.84
2023-05-12T01:29:10.563Z,17.81
2023-05-12T01:31:40.879Z,17.81
2023-05-12T01:34:11.269Z,17.80
2023-05-12T01:36:43.931Z,17.84
2023-05-12T01:39:14.394Z,17.84
2023-05-12T01:41:52.328Z,17.79
2023-05-12T01:44:26.318Z,17.78
2023-05-12T01:46:58.884Z,17.74
2023-05-12T01:49:29.338Z,17.71
2023-05-12T01:52:02.767Z,17.63
2023-05-12T01:54:34.392Z,17.56
2023-05-12T01:57:08.407Z,17.57
2023-05-12T01:59:41.441Z,17.53
2023-05-12T02:02:15.304Z,17.43
2023-05-12T02:04:45.977Z,17.35
2023-05-12T02:07:16.251Z,17.28
2023-05-12T02:09:51.227Z,17.25
2023-05-12T02:12:25.668Z,17.23
2023-05-12T02:14:58.789Z,17.24
2023-05-12T02:17:29.530Z,17.21
2023-05-12T02:20:04.265Z,17.12
2023-05-12T02:22:34.776Z,17.07
2023-05-12T02:25:05.377Z,17.03
2023-05-12T02:27:38.720Z,17.04
2023-05-12T02:30:11.594Z,17.05
2023-05-12T02:32:42.196Z,16.97
2023-05-12T02:35:14.123Z,16.93
2023-05-12T02:37:45.513Z,16.93
2023-05-12T02:40:16.475Z,16.86
2023-05-12T02:42:49.388Z,16.86
2023-05-12T02:45:19.698Z,16.82
2023-05-12T02:47:50.130Z,16.82
2023-05-12T02:50:21.969Z,16.83
2023-05-12T02:52:53.868Z,16.85
2023-05-12T02:55:24.207Z,16.80
2023-05-12T02:57:57.521Z,16.80
2023-05-12T03:00:30.358Z,16.78
2023-05-12T03:03:00.546Z,16.71
2023-05-12T03:05:31.436Z,16.68
2023-05-12T03:08:04.803Z,16.60
2023-05-12T03:10:36.720Z,16.61
2023-05-12T03:13:09.857Z,16.61
2023-05-12T03:15:40.159Z,16.58
2023-05-12T03:18:20.966Z,16.58
2023-05-12T03:20:52.123Z,16.53
2023-05-12T03:23:26.257Z,16.50
2023-05-12T03:25:56.506Z,16.48
2023-05-12T03:28:32.353Z,16.43
2023-05-12T03:31:02.727Z,16.40
2023-05-12T03:33:33.180Z,16.38
2023-05-12T03:36:03.456Z,16.37
2023-05-12T03:38:34.702Z,16.38
2023-05-12T03:41:08.075Z,16.37
2023-05-12T03:43:41.616Z,16.37
2023-05-12T03:46:12.158Z,16.33
2023-05-12T03:48:42.340Z,16.37
2023-05-12T03:51:12.415Z,16.42
2023-05-12T03:53:45.480Z,16.45
2023-05-12T03:56:17.341Z,16.44
2023-05-12T03:58:50.076Z,16.42
2023-05-12T04:01:20.444Z,16.38
2023-05-12T04:03:50.579Z,16.38
2023-05-12T04:06:20.848Z,16.37
2023-05-12T04:08:50.962Z,16.34
2023-05-12T04:11:21.082Z,16.37
2023-05-12T04:13:54.336Z,16.42
2023-05-12T04:16:24.538Z,16.46
2023-05-12T04:18:54.834Z,16.51
2023-05-12T04:21:25.028Z,16.55
2023-05-12T04:23:55.374Z,16.62
2023-05-12T04:26:29.939Z,16.62
2023-05-12T04:29:03.373Z,16.61
2023-05-12T04:31:33.758Z,16.59
2023-05-12T04:34:07.708Z,16.65
2023-05-12T04:36:38.530Z,16.71
2023-05-12T04:39:09.688Z,16.73
2023-05-12T04:41:41.454Z,16.75
2023-05-12T04:44:14.485Z,16.74
2023-05-12T04:46:44.809Z,17.00
2023-05-12T04:49:15.021Z,17.38
2023-05-12T04:51:45.160Z,17.80
2023-05-12T04:54:15.602Z,18.13
2023-05-12T04:56:46.435Z,18.54
2023-05-12T04:59:19.270Z,18.81
2023-05-12T05:01:51.678Z,19.11
2023-05-12T05:04:25.583Z,19.44
2023-05-12T05:06:55.788Z,19.67
2023-05-12T05:09:27.178Z,19.92
2023-05-12T05:11:57.567Z,20.02
2023-05-12T05:14:30.346Z,20.17
2023-05-12T05:17:00.825Z,20.24
2023-05-12T05:19:44.726Z,20.29
2023-05-12T05:22:22.256Z,20.41
2023-05-12T05:24:52.789Z,20.49
2023-05-12T05:27:22.993Z,20.54
2023-05-12T05:29:56.694Z,20.64
2023-05-12T05:32:27.038Z,20.95
2023-05-12T05:34:57.327Z,21.19
2023-05-12T05:37:27.842Z,21.40
2023-05-12T05:39:59.708Z,21.55
2023-05-12T05:42:30.220Z,21.63
2023-05-12T05:45:03.196Z,21.77
2023-05-12T05:47:34.624Z,21.86
2023-05-12T05:50:04.857Z,21.94
2023-05-12T05:52:37.229Z,22.13
2023-05-12T05:55:08.862Z,22.27
2023-05-12T05:57:39.124Z,22.32
2023-05-12T06:00:14.485Z,22.35
2023-05-12T06:02:47.293Z,22.37
2023-05-12T06:05:21.549Z,22.46
2023-05-12T06:07:51.861Z,22.62
2023-05-12T06:10:22.486Z,22.79
2023-05-12T06:12:53.220Z,22.94
2023-05-12T06:15:27.107Z,23.05
2023-05-12T06:17:57.238Z,23.14
2023-05-12T06:20:27.662Z,23.15
2023-05-12T06:22:58.457Z,23.14
2023-05-12T06:25:28.818Z,23.30
2023-05-12T06:27:59.164Z,23.49
2023-05-12T06:30:31.950Z,23.67
2023-05-12T06:33:02.548Z,23.94
2023-05-12T06:35:32.816Z,24.37
2023-05-12T06:38:06.291Z,24.58
2023-05-12T06:40:36.718Z,24.68
2023-05-12T06:43:07.532Z,24.82
2023-05-12T06:45:41.944Z,25.09
2023-05-12T06:48:12.228Z,25.45
2023-05-12T06:50:42.537Z,25.65
2023-05-12T06:53:12.689Z,25.80
2023-05-12T06:55:44.348Z,25.92
2023-05-12T06:58:14.521Z,26.07
2023-05-12T07:00:47.409Z,26.14
2023-05-12T07:03:17.770Z,26.23
2023-05-12T07:05:48.021Z,26.31
2023-05-12T07:08:18.381Z,26.34
2023-05-12T07:10:48.733Z,26.43
2023-05-12T07:13:19.228Z,26.76
2023-05-12T07:15:51.922Z,26.98
2023-05-12T07:18:22.210Z,27.14
2023-05-12T07:20:52.467Z,27.37
2023-05-12T07:23:22.675Z,27.57
2023-05-12T07:25:52.662Z,27.78
2023-05-12T07:28:22.853Z,28.02
2023-05-12T07:30:55.515Z,28.24
2023-05-12T07:33:25.817Z,28.50
2023-05-12T07:35:55.900Z,28.48
2023-05-12T07:38:26.000Z,28.41
2023-05-12T07:40:56.171Z,28.37
2023-05-12T07:43:26.645Z,28.37
2023-05-12T07:46:01.175Z,28.45
2023-05-12T07:48:31.345Z,28.61
2023-05-12T07:51:01.442Z,28.93
2023-05-12T07:53:45.021Z,29.04
2023-05-12T07:56:15.155Z,29.11
2023-05-12T07:58:47.696Z,29.14
2023-05-12T08:01:20.704Z,29.35
2023-05-12T08:03:51.539Z,29.62
2023-05-12T08:06:21.982Z,29.61
2023-05-12T08:08:52.086Z,29.52
2023-05-12T08:11:22.377Z,29.53
2023-05-12T08:13:52.500Z,29.57
2023-05-12T08:16:25.103Z,29.53
2023-05-12T08:18:55.295Z,29.58
2023-05-12T08:21:25.459Z,29.52
2023-05-12T08:23:55.729Z,29.58
2023-05-12T08:26:25.844Z,29.69
2023-05-12T08:28:56.649Z,29.47
2023-05-12T08:31:29.672Z,29.24
2023-05-12T08:34:09.890Z,29.18
2023-05-12T08:36:40.940Z,29.30
2023-05-12T08:39:11.490Z,29.45
2023-05-12T08:41:46.796Z,29.39
2023-05-12T08:44:18.281Z,29.60
2023-05-12T08:46:51.510Z,29.77
2023-05-12T08:49:24.279Z,29.87
2023-05-12T08:51:58.162Z,30.05
2023-05-12T08:54:30.703Z,30.14
2023-05-12T08:59:34.804Z,30.11
2023-05-12T09:02:11.123Z,30.27
2023-05-12T09:04:41.394Z,30.55
2023-05-12T09:07:12.335Z,30.70
2023-05-12T09:09:47.227Z,30.59
2023-05-12T09:12:22.203Z,30.68
2023-05-12T09:15:01.673Z,31.06
2023-05-12T09:17:34.551Z,31.27
2023-05-12T09:20:08.656Z,31.09
2023-05-12T09:22:40.155Z,30.94
2023-05-12T09:25:20.666Z,30.92
2023-05-12T09:27:52.759Z,30.88
2023-05-12T09:30:38.374Z,31.23
2023-05-12T09:33:12.079Z,31.57
2023-05-12T09:35:43.744Z,31.80
2023-05-12T09:38:15.588Z,31.95
2023-05-12T09:40:46.261Z,32.24
2023-05-12T09:43:16.572Z,32.26
2023-05-12T09:45:47.839Z,32.27
2023-05-12T09:48:21.289Z,31.84
2023-05-12T09:50:54.692Z,31.51
2023-05-12T09:53:24.986Z,31.44
2023-05-12T09:55:55.072Z,31.53
2023-05-12T09:58:27.572Z,31.97
2023-05-12T10:01:20.880Z,32.08
2023-05-12T10:03:56.897Z,31.84
2023-05-12T10:06:30.035Z,31.47
2023-05-12T10:09:12.208Z,31.39
2023-05-12T10:11:43.505Z,31.38
2023-05-12T10:14:13.940Z,31.48
2023-05-12T10:16:45.875Z,31.83
2023-05-12T10:19:20.343Z,32.16
2023-05-12T10:21:50.741Z,32.57
2023-05-12T10:24:21.040Z,32.67
2023-05-12T10:26:51.295Z,32.36
2023-05-12T10:29:22.180Z,32.25
2023-05-12T10:31:52.923Z,32.30
2023-05-12T10:34:26.117Z,32.31
2023-05-12T10:36:56.410Z,32.35
2023-05-12T10:39:33.102Z,32.42
2023-05-12T10:42:09.183Z,32.79
2023-05-12T10:44:50.563Z,33.01
2023-05-12T10:47:20.789Z,33.38
2023-05-12T10:49:59.081Z,33.52
2023-05-12T10:52:29.325Z,33.90
2023-05-12T10:55:04.181Z,33.80
2023-05-12T10:57:35.670Z,33.72
2023-05-12T11:00:06.681Z,33.90
2023-05-12T11:02:38.393Z,34.18
2023-05-12T11:05:15.182Z,34.71
2023-05-12T11:07:52.541Z,34.91
2023-05-12T11:10:24.406Z,34.88
2023-05-12T11:12:57.679Z,35.06
2023-05-12T11:15:28.461Z,35.09
2023-05-12T11:18:05.124Z,34.90
2023-05-12T11:20:38.452Z,34.08
2023-05-12T11:23:08.642Z,34.58
2023-05-12T11:25:39.026Z,34.97
2023-05-12T11:28:14.303Z,35.26
2023-05-12T11:30:54.974Z,35.58
2023-05-12T11:33:28.384Z,35.69
2023-05-12T11:36:01.274Z,34.39
2023-05-12T11:38:31.490Z,32.91
2023-05-12T11:41:01.724Z,33.38
2023-05-12T11:43:33.489Z,34.54
2023-05-12T11:46:03.615Z,35.16
2023-05-12T11:48:37.544Z,35.50
2023-05-12T11:51:11.366Z,35.96
2023-05-12T11:53:43.987Z,36.70
2023-05-12T11:56:22.190Z,37.47
2023-05-12T11:59:00.032Z,37.75
2023-05-12T12:01:30.278Z,37.26
2023-05-12T12:04:00.754Z,36.83
2023-05-12T12:06:34.042Z,36.75
2023-05-12T12:09:04.356Z,36.93
2023-05-12T12:11:34.919Z,37.53
2023-05-12T12:14:05.106Z,37.90
2023-05-12T12:16:35.915Z,38.30
2023-05-12T12:19:07.574Z,38.54
2023-05-12T12:21:40.506Z,38.30
2023-05-12T12:24:11.573Z,38.15
2023-05-12T12:26:41.885Z,38.43
2023-05-12T12:29:12.208Z,38.98
2023-05-12T12:31:42.483Z,39.43
2023-05-12T12:34:12.965Z,37.05
2023-05-12T12:36:46.966Z,35.68
2023-05-12T12:39:19.692Z,36.87
2023-05-12T12:41:50.999Z,38.15
2023-05-12T12:44:21.939Z,38.92
2023-05-12T12:46:52.227Z,39.40
2023-05-12T12:49:22.420Z,37.96
2023-05-12T12:51:55.741Z,37.05
2023-05-12T12:54:27.745Z,37.92
2023-05-12T12:57:02.239Z,39.11
2023-05-12T12:59:32.386Z,40.38
2023-05-12T13:02:02.750Z,40.22
2023-05-12T13:04:33.439Z,39.82
2023-05-12T13:07:06.774Z,39.56
2023-05-12T13:09:37.119Z,39.46
2023-05-12T13:12:08.201Z,39.58
2023-05-12T13:14:40.258Z,39.34
2023-05-12T13:17:11.209Z,39.38
2023-05-12T13:19:42.169Z,39.36
2023-05-12T13:22:15.355Z,39.37
2023-05-12T13:24:45.618Z,38.56
2023-05-12T13:27:18.811Z,37.45
2023-05-12T13:29:49.112Z,36.16
2023-05-12T13:32:21.192Z,34.74
2023-05-12T13:34:51.620Z,32.87
2023-05-12T13:37:24.483Z,31.38
2023-05-12T13:39:54.646Z,30.47
2023-05-12T13:42:24.960Z,30.12
2023-05-12T13:44:56.610Z,30.05
2023-05-12T13:47:27.165Z,29.90
2023-05-12T13:49:57.741Z,29.26
2023-05-12T13:52:30.717Z,28.64
2023-05-12T13:55:21.042Z,28.26
2023-05-12T13:57:51.682Z,27.92
2023-05-12T14:00:22.563Z,27.71
2023-05-12T14:02:52.671Z,27.58
2023-05-12T14:05:23.332Z,27.43
2023-05-12T14:07:56.288Z,27.39
2023-05-12T14:10:26.381Z,27.53
2023-05-12T14:12:56.578Z,27.70
2023-05-12T14:15:36.518Z,27.80
2023-05-12T14:18:17.014Z,28.01
2023-05-12T14:20:47.331Z,28.10
2023-05-12T14:23:20.070Z,27.79
2023-05-12T14:25:50.242Z,27.35
2023-05-12T14:28:20.321Z,26.99
2023-05-12T14:30:50.531Z,26.73
2023-05-12T14:33:20.801Z,26.73
2023-05-12T14:36:03.184Z,26.77
2023-05-12T14:38:42.314Z,26.95
2023-05-12T14:41:12.563Z,27.06
2023-05-12T14:43:42.618Z,27.02
2023-05-12T14:46:13.921Z,27.00
2023-05-12T14:48:44.444Z,26.78
2023-05-12T14:51:14.557Z,26.67
2023-05-12T14:53:47.700Z,26.58
2023-05-12T14:56:17.788Z,26.58
2023-05-12T14:58:47.806Z,26.67
2023-05-12T15:01:17.989Z,26.76
2023-05-12T15:03:48.672Z,26.73
2023-05-12T15:06:18.894Z,26.66
2023-05-12T15:08:52.313Z,26.57
2023-05-12T15:11:22.402Z,26.61
2023-05-12T15:13:52.600Z,26.61
2023-05-12T15:16:23.349Z,26.58
2023-05-12T15:18:58.197Z,26.61
2023-05-12T15:21:28.356Z,26.62
2023-05-12T15:24:01.118Z,26.44
2023-05-12T15:26:33.631Z,26.35
2023-05-12T15:29:05.220Z,26.31
2023-05-12T15:31:35.443Z,26.34
2023-05-12T15:34:06.371Z,26.41
2023-05-12T15:36:36.536Z,26.43
2023-05-12T15:39:09.216Z,26.36
2023-05-12T15:41:39.458Z,26.26
2023-05-12T15:44:09.507Z,26.21
2023-05-12T15:46:39.701Z,26.05
2023-05-12T15:49:10.198Z,25.93
2023-05-12T15:51:40.511Z,25.88
2023-05-12T15:54:13.207Z,25.83
2023-05-12T15:56:43.622Z,25.82
2023-05-12T15:59:14.262Z,25.81
2023-05-12T16:01:44.442Z,25.88
2023-05-12T16:04:14.568Z,25.93
2023-05-12T16:06:44.821Z,25.92
2023-05-12T16:09:17.542Z,25.96
2023-05-12T16:11:48.967Z,25.96
2023-05-12T16:14:22.465Z,25.77
2023-05-12T16:16:53.409Z,25.72
2023-05-12T16:19:23.624Z,25.71
2023-05-12T16:21:54.849Z,25.58
2023-05-12T16:24:28.772Z,25.46
2023-05-12T16:26:58.959Z,25.43
2023-05-12T16:29:29.365Z,25.48
2023-05-12T16:31:59.498Z,25.49
2023-05-12T16:34:29.611Z,25.43
2023-05-12T16:36:59.759Z,25.50
2023-05-12T16:39:34.058Z,25.58
2023-05-12T16:42:04.277Z,25.56
2023-05-12T16:44:35.755Z,25.47
2023-05-12T16:47:08.119Z,25.33
2023-05-12T16:49:38.383Z,25.25
2023-05-12T16:52:10.424Z,25.29
2023-05-12T16:54:44.674Z,25.27
2023-05-12T16:57:14.783Z,25.27
2023-05-12T16:59:44.930Z,25.16
2023-05-12T17:02:15.060Z,25.06
2023-05-12T17:04:46.762Z,24.96
2023-05-12T17:07:16.920Z,24.85
2023-05-12T17:09:49.616Z,24.75
2023-05-12T17:12:19.974Z,24.79
2023-05-12T17:15:03.265Z,24.79
2023-05-12T17:17:37.117Z,24.83
2023-05-12T17:20:09.376Z,24.90
2023-05-12T17:22:44.313Z,24.93
2023-05-12T17:25:17.470Z,24.75
2023-05-12T17:27:48.262Z,24.74
2023-05-12T17:30:21.666Z,24.74
2023-05-12T17:32:52.091Z,24.69
2023-05-12T17:35:22.821Z,24.69
2023-05-12T17:37:55.767Z,24.72
2023-05-12T17:40:28.745Z,24.72
2023-05-12T17:42:58.800Z,24.70
2023-05-12T17:45:28.962Z,24.61
2023-05-12T17:47:59.240Z,24.51
2023-05-12T17:50:29.689Z,24.44
2023-05-12T17:52:59.926Z,24.37
2023-05-12T17:55:32.883Z,24.31
2023-05-12T17:58:03.144Z,24.29
2023-05-12T18:00:33.432Z,24.26
2023-05-12T18:03:03.871Z,24.26
2023-05-12T18:05:35.962Z,24.24
2023-05-12T18:08:07.655Z,24.29
2023-05-12T18:10:41.611Z,24.29
2023-05-12T18:13:11.826Z,24.28
2023-05-12T18:15:42.107Z,24.26
2023-05-12T18:18:12.542Z,24.21
2023-05-12T18:20:43.916Z,24.19
2023-05-12T18:23:14.158Z,24.16
2023-05-12T18:25:47.323Z,24.09
2023-05-12T18:28:17.365Z,24.02
2023-05-12T18:30:47.510Z,23.98
2023-05-12T18:33:17.999Z,23.93
2023-05-12T18:35:48.141Z,23.85
2023-05-12T18:38:18.318Z,23.77
2023-05-12T18:40:51.096Z,23.72
2023-05-12T18:43:21.624Z,23.68
2023-05-12T18:45:51.928Z,23.59
2023-05-12T18:48:22.019Z,23.50
2023-05-12T18:50:52.427Z,23.42
2023-05-12T18:53:22.720Z,23.40
2023-05-12T18:55:55.417Z,23.33
2023-05-12T18:58:40.626Z,23.28
2023-05-12T19:01:11.041Z,23.21
2023-05-12T19:03:41.532Z,23.13
2023-05-12T19:06:14.417Z,23.04
2023-05-12T19:08:44.671Z,22.99
2023-05-12T19:11:17.648Z,22.91
2023-05-12T19:13:50.834Z,22.86
2023-05-12T19:16:24.338Z,22.77
2023-05-12T19:18:54.675Z,22.70
2023-05-12T19:21:25.104Z,22.61
2023-05-12T19:23:55.724Z,22.52
2023-05-12T19:26:28.481Z,22.50
2023-05-12T19:29:00.672Z,22.45
2023-05-12T19:31:31.398Z,22.38
2023-05-12T19:34:01.563Z,22.33
2023-05-12T19:36:32.831Z,22.26
2023-05-12T19:39:03.219Z,22.25
2023-05-12T19:41:36.096Z,22.20
2023-05-12T19:44:08.655Z,22.14
2023-05-12T19:46:39.027Z,22.15
2023-05-12T19:49:09.573Z,22.06
2023-05-12T19:51:39.897Z,22.01
2023-05-12T19:54:10.397Z,22.02
2023-05-12T19:56:43.364Z,21.97
2023-05-12T19:59:13.536Z,21.93
2023-05-12T20:01:53.761Z,21.89
2023-05-12T20:04:38.008Z,21.87
2023-05-12T20:07:35.584Z,21.75
2023-05-12T20:10:31.512Z,21.68
2023-05-12T20:13:07.543Z,21.66
2023-05-12T20:15:44.222Z,21.62
2023-05-12T20:18:17.206Z,21.56
2023-05-12T20:21:05.250Z,21.47
2023-05-12T20:23:35.554Z,21.43
2023-05-12T20:26:10.185Z,21.35
2023-05-12T20:28:42.985Z,21.32
2023-05-12T20:31:14.753Z,21.30
2023-05-12T20:33:45.235Z,21.25
2023-05-12T20:36:22.591Z,21.20
2023-05-12T20:38:52.968Z,21.21
2023-05-12T20:41:23.026Z,21.19
2023-05-12T20:43:56.588Z,21.17
2023-05-12T20:46:28.309Z,21.13
2023-05-12T20:48:58.530Z,21.08
2023-05-12T20:51:28.996Z,21.04
2023-05-12T20:54:14.614Z,21.03
2023-05-12T20:56:46.655Z,21.03
2023-05-12T20:59:20.274Z,21.03
2023-05-12T21:01:50.705Z,21.04
2023-05-12T21:04:20.895Z,20.97
2023-05-12T21:06:53.318Z,20.92
2023-05-12T21:09:24.179Z,20.88
2023-05-12T21:11:54.523Z,20.88
2023-05-12T21:14:27.999Z,20.91
2023-05-12T21:16:58.142Z,20.92
2023-05-12T21:19:28.255Z,20.88
2023-05-12T21:21:59.059Z,20.84
2023-05-12T21:24:29.419Z,20.84
2023-05-12T21:27:00.052Z,20.81
2023-05-12T21:29:32.964Z,20.80
2023-05-12T21:32:07.199Z,20.78
2023-05-12T21:34:37.743Z,20.74
2023-05-12T21:37:12.143Z,20.70
2023-05-12T21:39:42.287Z,20.62
2023-05-12T21:42:12.332Z,20.59
2023-05-12T21:44:45.127Z,20.57
2023-05-12T21:47:15.821Z,20.49
2023-05-12T21:49:48.394Z,20.44
2023-05-12T21:52:34.216Z,20.42
2023-05-12T21:55:05.537Z,20.39
2023-05-12T21:57:37.762Z,20.36
2023-05-12T22:00:20.540Z,20.34
2023-05-12T22:02:50.898Z,20.27
2023-05-12T22:05:21.307Z,20.23
2023-05-12T22:07:51.745Z,20.16
2023-05-12T22:10:22.227Z,20.13
2023-05-12T22:12:52.587Z,20.05
2023-05-12T22:15:25.830Z,19.95
2023-05-12T22:17:56.274Z,19.91
2023-05-12T22:20:29.262Z,19.85
2023-05-12T22:22:59.726Z,19.79
2023-05-12T22:25:29.887Z,19.75
2023-05-12T22:28:00.291Z,19.72
2023-05-12T22:30:33.609Z,19.70
2023-05-12T22:33:03.863Z,19.68
2023-05-12T22:35:36.230Z,19.67
2023-05-12T22:38:06.724Z,19.60
2023-05-12T22:40:37.246Z,19.53
2023-05-12T22:43:07.483Z,19.51
2023-05-12T22:45:40.241Z,19.43
2023-05-12T22:48:11.258Z,19.36
2023-05-12T22:50:45.032Z,19.35
2023-05-12T22:53:15.769Z,19.34
2023-05-12T22:55:47.360Z,19.29
2023-05-12T22:58:17.701Z,19.26
2023-05-12T23:00:52.543Z,19.21
2023-05-12T23:03:22.980Z,19.16
2023-05-12T23:05:53.688Z,19.14
2023-05-12T23:08:27.057Z,19.11
2023-05-12T23:10:58.014Z,19.09
2023-05-12T23:13:28.388Z,19.05
2023-05-12T23:16:01.781Z,19.01
2023-05-12T23:18:32.379Z,18.98
2023-05-12T23:21:02.487Z,18.93
2023-05-12T23:23:33.645Z,18.92
2023-05-12T23:26:04.456Z,18.83
2023-05-12T23:28:34.914Z,18.82
2023-05-12T23:31:08.117Z,18.75
2023-05-12T23:33:38.631Z,18.78
2023-05-12T23:36:09.646Z,18.82
2023-05-12T23:38:39.862Z,18.79
2023-05-12T23:41:10.459Z,18.77
2023-05-12T23:43:41.196Z,18.74
2023-05-12T23:46:13.988Z,18.72
2023-05-12T23:48:44.562Z,18.73
2023-05-12T23:51:19.914Z,18.72
2023-05-12T23:53:50.115Z,18.69
2023-05-12T23:56:20.277Z,18.68
2023-05-12T23:58:50.368Z,18.69
